createdAt,value
2024-03-13T00:00:20.786Z,13.21
2024-03-13T00:02:57.887Z,13.12
2024-03-13T00:05:12.963Z,13.11
2024-03-13T00:07:25.839Z,13.13
2024-03-13T00:09:51.943Z,13.16
2024-03-13T00:12:25.280Z,13.16
2024-03-13T00:14:42.076Z,13.14
2024-03-13T00:16:59.490Z,13.10
2024-03-13T00:19:13.072Z,13.10
2024-03-13T00:21:26.747Z,13.07
2024-03-13T00:23:42.649Z,13.04
2024-03-13T00:25:55.834Z,13.01
2024-03-13T00:28:09.955Z,12.97
2024-03-13T00:30:23.218Z,12.91
2024-03-13T00:32:36.708Z,12.87
2024-03-13T00:35:03.752Z,12.79
2024-03-13T00:37:16.724Z,12.71
2024-03-13T00:39:29.614Z,12.66
2024-03-13T00:41:43.444Z,12.59
2024-03-13T00:43:56.476Z,12.57
2024-03-13T00:46:10.506Z,12.53
2024-03-13T00:48:23.522Z,12.48
2024-03-13T00:50:37.285Z,12.42
2024-03-13T00:52:51.301Z,12.35
2024-03-13T00:55:05.054Z,12.24
2024-03-13T00:57:19.549Z,12.18
2024-03-13T00:59:36.600Z,12.14
2024-03-13T01:01:59.708Z,12.07
2024-03-13T01:04:13.382Z,11.99
2024-03-13T01:06:27.821Z,11.92
2024-03-13T01:08:40.791Z,11.83
2024-03-13T01:10:53.921Z,11.76
2024-03-13T01:13:07.587Z,11.70
2024-03-13T01:15:20.489Z,11.65
2024-03-13T01:17:44.572Z,11.57
2024-03-13T01:19:57.868Z,11.48
2024-03-13T01:22:15.250Z,11.41
2024-03-13T01:24:29.007Z,11.34
2024-03-13T01:26:45.205Z,11.26
2024-03-13T01:29:01.466Z,11.19
2024-03-13T01:31:14.498Z,11.10
2024-03-13T01:33:31.052Z,11.07
2024-03-13T01:35:47.438Z,11.01
2024-03-13T01:38:00.911Z,10.99
2024-03-13T01:40:21.456Z,10.95
2024-03-13T01:42:51.467Z,10.90
2024-03-13T01:45:45.644Z,10.83
2024-03-13T01:48:19.966Z,10.74
2024-03-13T01:50:49.794Z,10.67
2024-03-13T01:53:32.792Z,10.60
2024-03-13T01:55:51.279Z,10.55
2024-03-13T01:58:21.834Z,10.48
2024-03-13T02:01:03.791Z,10.39
2024-03-13T02:03:20.135Z,10.31
2024-03-13T02:05:36.116Z,10.27
2024-03-13T02:07:52.763Z,10.20
2024-03-13T02:10:09.296Z,10.17
2024-03-13T02:12:25.740Z,10.13
2024-03-13T02:14:45.343Z,10.12
2024-03-13T02:17:00.328Z,10.09
2024-03-13T02:19:17.248Z,10.05
2024-03-13T02:21:30.744Z,10.03
2024-03-13T02:23:41.323Z,10.02
2024-03-13T02:25:59.753Z,9.99
2024-03-13T02:28:09.734Z,9.97
2024-03-13T02:30:22.830Z,9.94
2024-03-13T02:32:35.987Z,9.92
2024-03-13T02:34:49.236Z,9.89
2024-03-13T02:36:58.786Z,9.87
2024-03-13T02:39:07.737Z,9.83
2024-03-13T02:41:20.138Z,9.82
2024-03-13T02:43:50.126Z,9.79
2024-03-13T02:46:08.307Z,9.75
2024-03-13T02:48:20.607Z,9.72
2024-03-13T02:50:30.732Z,9.69
2024-03-13T02:52:39.642Z,9.65
2024-03-13T02:54:49.758Z,9.58
2024-03-13T02:56:59.712Z,9.56
2024-03-13T02:59:22.407Z,9.47
2024-03-13T03:01:31.500Z,9.45
2024-03-13T03:03:51.496Z,9.40
2024-03-13T03:06:09.661Z,9.37
2024-03-13T03:08:42.590Z,9.33
2024-03-13T03:11:03.416Z,9.29
2024-03-13T03:13:21.663Z,9.25
2024-03-13T03:15:38.408Z,9.21
2024-03-13T03:17:51.489Z,9.17
2024-03-13T03:20:06.275Z,9.12
2024-03-13T03:22:15.932Z,9.08
2024-03-13T03:24:27.744Z,9.04
2024-03-13T03:26:36.925Z,9.00
2024-03-13T03:28:45.744Z,8.96
2024-03-13T03:30:58.982Z,8.93
2024-03-13T03:33:08.295Z,8.91
2024-03-13T03:35:21.469Z,8.88
2024-03-13T03:37:30.468Z,8.84
2024-03-13T03:39:40.540Z,8.82
2024-03-13T03:41:50.146Z,8.80
2024-03-13T03:44:02.108Z,8.77
2024-03-13T03:46:22.318Z,8.77
2024-03-13T03:48:34.677Z,8.75
2024-03-13T03:50:43.756Z,8.75
2024-03-13T03:52:56.078Z,8.74
2024-03-13T03:55:25.017Z,8.74
2024-03-13T03:57:44.819Z,8.73
2024-03-13T04:00:14.825Z,8.72
2024-03-13T04:02:23.873Z,8.73
2024-03-13T04:04:32.924Z,8.72
2024-03-13T04:06:43.398Z,8.71
2024-03-13T04:08:53.966Z,8.70
2024-03-13T04:11:04.039Z,8.68
2024-03-13T04:13:18.265Z,8.67
2024-03-13T04:15:28.716Z,8.65
2024-03-13T04:17:42.704Z,8.64
2024-03-13T04:19:51.840Z,8.63
2024-03-13T04:22:04.592Z,8.61
2024-03-13T04:24:24.326Z,8.61
2024-03-13T04:26:36.522Z,8.60
2024-03-13T04:28:50.271Z,8.58
2024-03-13T04:30:59.361Z,8.56
2024-03-13T04:33:08.701Z,8.54
2024-03-13T04:35:22.868Z,8.52
2024-03-13T04:37:31.887Z,8.50
2024-03-13T04:39:41.016Z,8.51
2024-03-13T04:41:53.732Z,8.49
2024-03-13T04:44:06.736Z,8.48
2024-03-13T04:46:19.271Z,8.46
2024-03-13T04:48:39.353Z,8.44
2024-03-13T04:50:58.643Z,8.44
2024-03-13T04:53:10.133Z,8.41
2024-03-13T04:55:19.104Z,8.38
2024-03-13T04:57:28.143Z,8.36
2024-03-13T04:59:57.774Z,8.34
2024-03-13T05:02:08.335Z,8.33
2024-03-13T05:04:17.370Z,8.32
2024-03-13T05:06:35.350Z,8.31
2024-03-13T05:08:44.786Z,8.30
2024-03-13T05:10:53.633Z,8.29
2024-03-13T05:13:05.000Z,8.27
2024-03-13T05:15:16.887Z,8.25
2024-03-13T05:17:38.603Z,8.23
2024-03-13T05:19:47.551Z,8.20
2024-03-13T05:21:56.594Z,8.18
2024-03-13T05:24:09.198Z,8.16
2024-03-13T05:26:21.065Z,8.13
2024-03-13T05:28:33.632Z,8.11
2024-03-13T05:30:46.072Z,8.11
2024-03-13T05:33:15.028Z,8.10
2024-03-13T05:35:44.050Z,8.10
2024-03-13T05:37:52.970Z,8.10
2024-03-13T05:40:23.022Z,8.09
2024-03-13T05:42:43.974Z,8.08
2024-03-13T05:44:56.422Z,8.08
2024-03-13T05:47:05.343Z,8.07
2024-03-13T05:49:19.345Z,8.05
2024-03-13T05:51:28.694Z,8.04
2024-03-13T05:53:37.726Z,8.02
2024-03-13T05:55:49.925Z,8.01
2024-03-13T05:57:59.172Z,7.99
2024-03-13T06:00:11.616Z,7.96
2024-03-13T06:02:24.565Z,7.92
2024-03-13T06:04:37.885Z,7.89
2024-03-13T06:06:48.084Z,7.86
2024-03-13T06:09:00.653Z,7.84
2024-03-13T06:11:10.616Z,7.82
2024-03-13T06:13:19.572Z,7.82
2024-03-13T06:15:28.523Z,7.81
2024-03-13T06:17:37.846Z,7.78
2024-03-13T06:19:47.228Z,7.76
2024-03-13T06:21:56.252Z,7.74
2024-03-13T06:24:08.506Z,7.75
2024-03-13T06:26:19.436Z,7.72
2024-03-13T06:28:44.312Z,7.68
2024-03-13T06:30:56.419Z,7.65
2024-03-13T06:33:06.497Z,7.64
2024-03-13T06:35:15.498Z,7.63
2024-03-13T06:37:24.764Z,7.62
2024-03-13T06:39:43.562Z,7.60
2024-03-13T06:41:56.389Z,7.59
2024-03-13T06:44:08.595Z,7.59
2024-03-13T06:46:18.085Z,7.57
2024-03-13T06:48:30.619Z,7.56
2024-03-13T06:50:42.900Z,7.53
2024-03-13T06:52:51.889Z,7.52
2024-03-13T06:55:20.844Z,7.52
2024-03-13T06:57:40.921Z,7.50
2024-03-13T06:59:49.876Z,7.49
2024-03-13T07:01:59.144Z,7.48
2024-03-13T07:04:18.223Z,7.49
2024-03-13T07:06:27.660Z,7.47
2024-03-13T07:08:40.188Z,7.47
2024-03-13T07:10:49.369Z,7.47
2024-03-13T07:12:58.220Z,7.46
2024-03-13T07:15:17.500Z,7.46
2024-03-13T07:17:30.231Z,7.45
2024-03-13T07:19:40.367Z,7.44
2024-03-13T07:21:49.325Z,7.44
2024-03-13T07:23:58.386Z,7.42
2024-03-13T07:26:09.823Z,7.40
2024-03-13T07:28:21.899Z,7.37
2024-03-13T07:30:31.553Z,7.33
2024-03-13T07:32:44.120Z,7.32
2024-03-13T07:34:53.878Z,7.29
2024-03-13T07:37:02.809Z,7.25
2024-03-13T07:39:16.881Z,7.22
2024-03-13T07:41:26.172Z,7.18
2024-03-13T07:43:35.235Z,7.15
2024-03-13T07:45:57.818Z,7.11
2024-03-13T07:48:11.124Z,7.08
2024-03-13T07:50:31.140Z,7.05
2024-03-13T07:52:50.614Z,7.03
2024-03-13T07:54:59.371Z,7.01
2024-03-13T07:57:08.593Z,6.99
2024-03-13T07:59:20.778Z,6.96
2024-03-13T08:01:29.888Z,6.94
2024-03-13T08:03:58.816Z,6.92
2024-03-13T09:06:54.628Z,6.88
2024-03-13T09:09:05.662Z,6.87
2024-03-13T09:11:19.160Z,6.87
2024-03-13T09:13:28.379Z,6.88
2024-03-13T09:15:40.812Z,6.88
2024-03-13T09:17:54.368Z,6.88
2024-03-13T09:20:16.087Z,6.89
2024-03-13T09:22:25.148Z,6.88
2024-03-13T09:24:48.121Z,6.88
2024-03-13T09:26:58.863Z,6.88
2024-03-13T09:29:11.099Z,6.87
2024-03-13T09:31:23.742Z,6.85
2024-03-13T09:33:35.686Z,6.79
2024-03-13T09:35:44.814Z,6.79
2024-03-13T09:37:54.610Z,6.76
2024-03-13T09:40:07.060Z,6.75
2024-03-13T09:42:19.987Z,6.73
2024-03-13T09:44:28.905Z,6.72
2024-03-13T09:46:38.180Z,6.71
2024-03-13T09:48:50.632Z,6.70
2024-03-13T09:51:02.150Z,6.70
2024-03-13T09:53:13.044Z,6.70
2024-03-13T09:55:25.157Z,6.69
2024-03-13T09:57:34.484Z,6.69
2024-03-13T09:59:46.675Z,6.68
2024-03-13T10:02:05.752Z,6.68
2024-03-13T10:04:26.708Z,6.67
2024-03-13T10:06:35.785Z,6.67
2024-03-13T10:09:05.653Z,6.66
2024-03-13T10:11:17.019Z,6.66
2024-03-13T10:13:29.753Z,6.65
2024-03-13T10:15:38.677Z,6.63
2024-03-13T10:17:47.936Z,6.59
2024-03-13T10:20:10.469Z,6.58
2024-03-13T10:22:19.348Z,6.55
2024-03-13T10:24:28.275Z,6.52
2024-03-13T10:26:41.358Z,6.51
2024-03-13T10:28:50.373Z,6.47
2024-03-13T10:31:19.284Z,6.44
2024-03-13T10:33:30.919Z,6.41
2024-03-13T10:35:41.520Z,6.40
2024-03-13T10:37:50.626Z,6.38
2024-03-13T10:40:02.645Z,6.37
2024-03-13T10:42:12.108Z,6.34
2024-03-13T10:44:30.037Z,6.35
2024-03-13T10:47:10.558Z,6.34
2024-03-13T10:49:19.681Z,6.31
2024-03-13T10:51:28.302Z,6.31
2024-03-13T10:53:37.456Z,6.30
2024-03-13T10:55:46.834Z,6.29
2024-03-13T10:57:56.933Z,6.27
2024-03-13T11:00:05.969Z,6.26
2024-03-13T11:02:14.745Z,6.25
2024-03-13T11:04:23.554Z,6.23
2024-03-13T11:06:32.471Z,6.21
2024-03-13T11:08:41.865Z,6.19
2024-03-13T11:11:02.162Z,6.18
2024-03-13T11:13:19.846Z,6.17
2024-03-13T11:15:31.780Z,6.17
2024-03-13T11:17:42.953Z,6.18
2024-03-13T11:19:52.056Z,6.17
2024-03-13T11:22:04.497Z,6.18
2024-03-13T11:24:14.296Z,6.18
2024-03-13T11:26:23.311Z,6.18
2024-03-13T11:28:32.263Z,6.17
2024-03-13T11:30:40.905Z,6.17
2024-03-13T11:32:51.115Z,6.16
2024-03-13T11:34:59.766Z,6.14
2024-03-13T11:37:13.476Z,6.13
2024-03-13T11:39:23.698Z,6.10
2024-03-13T11:41:33.730Z,6.07
2024-03-13T11:43:42.460Z,6.04
2024-03-13T11:45:51.159Z,6.03
2024-03-13T11:48:03.433Z,6.02
2024-03-13T11:50:13.457Z,6.00
2024-03-13T11:52:22.297Z,5.98
2024-03-13T11:54:34.791Z,5.96
2024-03-13T11:56:44.282Z,5.94
2024-03-13T11:58:53.701Z,5.90
2024-03-13T12:01:03.303Z,5.88
2024-03-13T12:03:13.945Z,5.86
2024-03-13T12:05:36.075Z,5.82
2024-03-13T12:07:45.232Z,5.78
2024-03-13T12:09:54.233Z,5.75
2024-03-13T12:12:06.507Z,5.70
2024-03-13T12:14:16.147Z,5.68
2024-03-13T12:16:24.879Z,5.66
2024-03-13T12:18:33.587Z,5.65
2024-03-13T12:20:44.168Z,5.63
2024-03-13T12:22:53.069Z,5.60
2024-03-13T12:25:01.887Z,5.59
2024-03-13T12:27:11.924Z,5.59
2024-03-13T12:29:20.647Z,5.57
2024-03-13T12:31:29.897Z,5.56
2024-03-13T12:33:38.849Z,5.56
2024-03-13T12:35:51.331Z,5.56
2024-03-13T12:38:00.154Z,5.56
2024-03-13T12:40:10.755Z,5.56
2024-03-13T12:42:20.505Z,5.56
2024-03-13T12:44:32.529Z,5.56
2024-03-13T12:46:42.627Z,5.56
2024-03-13T12:48:52.065Z,5.59
2024-03-13T12:51:00.887Z,5.60
2024-03-13T12:53:10.206Z,5.60
2024-03-13T12:55:22.203Z,5.61
2024-03-13T12:57:32.752Z,5.60
2024-03-13T12:59:53.886Z,5.59
2024-03-13T13:02:04.287Z,5.61
2024-03-13T13:04:13.521Z,5.60
2024-03-13T13:06:22.384Z,5.60
2024-03-13T13:08:30.962Z,5.59
2024-03-13T13:10:40.246Z,5.59
2024-03-13T13:12:49.842Z,5.58
2024-03-13T13:14:59.427Z,5.58
2024-03-13T13:17:09.717Z,5.59
2024-03-13T13:19:18.245Z,5.59
2024-03-13T13:21:27.287Z,5.60
2024-03-13T13:23:35.958Z,5.60
2024-03-13T13:25:44.845Z,5.61
2024-03-13T13:27:56.239Z,5.62
2024-03-13T13:30:05.497Z,5.62
2024-03-13T13:32:14.745Z,5.61
2024-03-13T13:34:23.354Z,5.62
2024-03-13T13:36:32.122Z,5.62
2024-03-13T13:38:40.807Z,5.63
2024-03-13T13:40:52.264Z,5.63
2024-03-13T13:43:01.190Z,5.63
2024-03-13T13:45:12.304Z,5.64
2024-03-13T13:47:20.975Z,5.63
2024-03-13T13:49:29.614Z,5.65
2024-03-13T13:51:38.287Z,5.66
2024-03-13T13:53:46.928Z,5.67
2024-03-13T13:55:55.799Z,5.67
2024-03-13T13:58:06.094Z,5.67
2024-03-13T14:00:19.760Z,5.67
2024-03-13T14:02:31.858Z,5.68
2024-03-13T14:04:40.847Z,5.68
2024-03-13T14:06:49.596Z,5.68
2024-03-13T14:08:58.216Z,5.67
2024-03-13T14:11:08.422Z,5.67
2024-03-13T14:13:18.164Z,5.66
2024-03-13T14:15:27.089Z,5.67
2024-03-13T14:17:38.141Z,5.68
2024-03-13T14:19:47.195Z,5.66
2024-03-13T14:21:57.009Z,5.68
2024-03-13T14:24:07.008Z,5.70
2024-03-13T14:26:15.751Z,5.70
2024-03-13T14:28:25.095Z,5.72
2024-03-13T14:30:33.707Z,5.74
2024-03-13T14:32:42.616Z,5.75
2024-03-13T14:34:59.325Z,5.75
2024-03-13T14:37:08.665Z,5.77
2024-03-13T14:39:19.020Z,5.77
2024-03-13T14:41:27.962Z,5.78
2024-03-13T14:43:37.318Z,5.79
2024-03-13T14:45:46.237Z,5.80
2024-03-13T14:47:55.350Z,5.82
2024-03-13T14:50:04.309Z,5.80
2024-03-13T14:52:13.145Z,5.82
2024-03-13T14:54:21.800Z,5.81
2024-03-13T14:56:31.063Z,5.80
2024-03-13T14:58:39.767Z,5.80
2024-03-13T15:00:50.654Z,5.79
2024-03-13T15:03:00.826Z,5.78
2024-03-13T15:05:10.273Z,5.79
2024-03-13T15:07:19.383Z,5.79
2024-03-13T15:09:28.020Z,5.81
2024-03-13T15:11:36.726Z,5.83
2024-03-13T15:13:49.155Z,5.83
2024-03-13T15:15:57.730Z,5.84
2024-03-13T15:18:06.573Z,5.85
2024-03-13T15:20:15.421Z,5.86
2024-03-13T15:22:26.624Z,5.87
2024-03-13T15:24:35.259Z,5.89
2024-03-13T15:26:44.163Z,5.91
2024-03-13T15:28:52.812Z,5.93
2024-03-13T15:31:01.398Z,5.96
2024-03-13T15:33:10.139Z,5.98
2024-03-13T15:35:18.941Z,6.01
2024-03-13T15:37:27.869Z,6.05
2024-03-13T15:39:36.596Z,6.07
2024-03-13T15:41:46.042Z,6.11
2024-03-13T15:43:55.387Z,6.13
2024-03-13T15:46:04.082Z,6.16
2024-03-13T15:48:13.049Z,6.15
2024-03-13T15:50:29.176Z,6.15
2024-03-13T15:52:41.785Z,6.16
2024-03-13T15:54:50.848Z,6.19
2024-03-13T15:56:59.504Z,6.22
2024-03-13T15:59:08.422Z,6.26
2024-03-13T16:01:17.802Z,6.30
2024-03-13T16:03:26.810Z,6.36
2024-03-13T16:05:35.769Z,6.41
2024-03-13T16:07:44.541Z,6.47
2024-03-13T16:09:54.116Z,6.53
2024-03-13T16:12:05.024Z,6.62
2024-03-13T16:14:16.385Z,6.67
2024-03-13T16:16:28.330Z,6.71
2024-03-13T16:18:37.050Z,6.76
2024-03-13T16:20:46.854Z,6.83
2024-03-13T16:22:55.406Z,6.89
2024-03-13T16:25:03.930Z,6.95
2024-03-13T16:27:12.611Z,7.02
2024-03-13T16:29:21.277Z,7.07
2024-03-13T16:31:29.871Z,7.14
2024-03-13T16:33:38.805Z,7.20
2024-03-13T16:35:47.488Z,7.26
2024-03-13T16:37:56.186Z,7.32
2024-03-13T16:40:06.481Z,7.38
2024-03-13T16:42:15.234Z,7.42
2024-03-13T16:44:24.685Z,7.44
2024-03-13T16:46:34.256Z,7.45
2024-03-13T16:48:43.400Z,7.49
2024-03-13T16:50:52.278Z,7.52
2024-03-13T16:53:00.974Z,7.55
2024-03-13T16:55:10.192Z,7.59
2024-03-13T16:57:18.850Z,7.63
2024-03-13T16:59:28.013Z,7.67
2024-03-13T17:01:36.694Z,7.69
2024-03-13T17:03:46.917Z,7.70
2024-03-13T17:05:56.363Z,7.71
2024-03-13T17:08:05.734Z,7.71
2024-03-13T17:10:14.501Z,7.71
2024-03-13T17:12:24.009Z,7.73
2024-03-13T17:14:33.796Z,7.76
2024-03-13T17:16:43.430Z,7.76
2024-03-13T17:18:52.289Z,7.79
2024-03-13T17:21:01.647Z,7.80
2024-03-13T17:23:12.958Z,7.83
2024-03-13T17:25:24.094Z,7.84
2024-03-13T17:27:32.758Z,7.84
2024-03-13T17:29:41.746Z,7.87
2024-03-13T17:31:50.336Z,7.88
2024-03-13T17:33:59.136Z,7.89
2024-03-13T17:36:09.411Z,7.88
2024-03-13T17:38:18.063Z,7.89
2024-03-13T17:40:26.722Z,7.90
2024-03-13T17:42:35.311Z,7.92
2024-03-13T17:44:45.476Z,7.92
2024-03-13T17:46:54.091Z,7.95
2024-03-13T17:49:02.890Z,7.98
2024-03-13T17:51:13.623Z,8.02
2024-03-13T17:53:22.367Z,8.07
2024-03-13T17:55:31.583Z,8.10
2024-03-13T17:57:40.436Z,8.14
2024-03-13T17:59:49.776Z,8.17
2024-03-13T18:01:58.465Z,8.20
2024-03-13T18:04:10.232Z,8.24
2024-03-13T18:06:22.285Z,8.27
2024-03-13T18:08:30.583Z,8.30
2024-03-13T18:10:39.303Z,8.33
2024-03-13T18:12:49.124Z,8.36
2024-03-13T18:14:58.219Z,8.40
2024-03-13T18:17:07.002Z,8.45
2024-03-13T18:19:15.932Z,8.48
2024-03-13T18:21:26.692Z,8.56
2024-03-13T18:23:35.258Z,8.66
2024-03-13T18:25:44.085Z,8.75
2024-03-13T18:27:52.730Z,8.89
2024-03-13T18:30:06.621Z,9.04
2024-03-13T18:32:15.286Z,9.21
2024-03-13T18:34:23.967Z,9.41
2024-03-13T18:36:32.646Z,9.56
2024-03-13T18:38:41.465Z,9.71
2024-03-13T18:40:50.535Z,9.92
2024-03-13T18:42:59.178Z,10.24
2024-03-13T18:45:08.524Z,10.61
2024-03-13T18:47:17.165Z,10.98
2024-03-13T18:49:25.713Z,11.32
2024-03-13T18:51:34.451Z,11.61
2024-03-13T18:53:44.128Z,11.93
2024-03-13T18:55:53.087Z,12.17
2024-03-13T18:58:01.808Z,12.36
2024-03-13T19:00:15.288Z,12.53
2024-03-13T19:02:25.794Z,12.75
2024-03-13T19:04:35.605Z,12.97
2024-03-13T19:06:45.258Z,13.13
2024-03-13T19:08:54.115Z,13.37
2024-03-13T19:11:03.257Z,13.45
2024-03-13T19:13:12.765Z,13.43
2024-03-13T19:15:21.943Z,13.50
2024-03-13T19:17:30.642Z,13.59
2024-03-13T19:19:39.523Z,13.74
2024-03-13T19:21:48.527Z,13.80
2024-03-13T19:23:58.565Z,13.80
2024-03-13T19:26:08.164Z,13.74
2024-03-13T19:28:16.898Z,13.68
2024-03-13T19:30:25.704Z,13.57
2024-03-13T19:32:34.310Z,13.65
2024-03-13T19:34:44.707Z,13.87
2024-03-13T19:36:53.356Z,14.08
2024-03-13T19:39:02.322Z,14.27
2024-03-13T19:41:11.118Z,14.26
2024-03-13T19:43:19.959Z,14.17
2024-03-13T19:45:29.269Z,14.07
2024-03-13T19:47:38.822Z,14.03
2024-03-13T19:49:47.604Z,14.11
2024-03-13T19:51:56.846Z,14.07
2024-03-13T19:54:05.604Z,14.16
2024-03-13T19:56:14.934Z,14.32
2024-03-13T19:58:23.550Z,14.34
2024-03-13T20:00:32.989Z,14.45
2024-03-13T20:02:41.792Z,14.63
2024-03-13T20:04:50.467Z,14.83
2024-03-13T20:06:59.218Z,15.01
2024-03-13T20:09:09.932Z,15.14
2024-03-13T20:11:19.561Z,15.26
2024-03-13T20:13:28.223Z,15.34
2024-03-13T20:15:37.308Z,15.39
2024-03-13T20:17:46.195Z,15.42
2024-03-13T20:19:55.823Z,15.46
2024-03-13T20:22:04.433Z,15.46
2024-03-13T20:24:13.610Z,15.47
2024-03-13T20:26:22.198Z,15.50
2024-03-13T20:28:30.813Z,15.56
2024-03-13T20:30:39.506Z,15.67
2024-03-13T20:32:48.284Z,15.85
2024-03-13T20:34:57.154Z,16.11
2024-03-13T20:37:05.891Z,16.36
2024-03-13T20:39:15.710Z,16.59
2024-03-13T20:41:25.054Z,16.74
2024-03-13T20:43:33.642Z,16.78
2024-03-13T20:45:42.620Z,16.79
2024-03-13T20:47:51.509Z,16.79
2024-03-13T20:50:00.852Z,16.80
2024-03-13T20:52:10.049Z,16.79
2024-03-13T20:54:18.808Z,16.68
2024-03-13T20:56:28.192Z,16.61
2024-03-13T20:58:38.149Z,16.60
2024-03-13T21:00:47.096Z,16.61
2024-03-13T21:02:57.963Z,16.59
2024-03-13T21:05:07.562Z,16.54
2024-03-13T21:07:16.305Z,16.52
2024-03-13T21:09:25.918Z,16.52
2024-03-13T21:11:34.843Z,16.48
2024-03-13T21:13:43.599Z,16.49
2024-03-13T21:15:57.098Z,16.47
2024-03-13T21:18:11.449Z,16.55
2024-03-13T21:20:22.153Z,16.57
2024-03-13T21:22:31.186Z,16.43
2024-03-13T21:24:39.991Z,16.35
2024-03-13T21:26:49.510Z,16.32
2024-03-13T21:28:59.263Z,16.29
2024-03-13T21:31:08.749Z,16.30
2024-03-13T21:33:17.418Z,16.35
2024-03-13T21:35:31.937Z,16.40
2024-03-13T21:37:40.888Z,16.50
2024-03-13T21:39:49.624Z,16.64
2024-03-13T21:41:58.266Z,16.75
2024-03-13T21:44:08.578Z,16.76
2024-03-13T21:46:18.018Z,16.72
2024-03-13T21:48:26.773Z,16.77
2024-03-13T21:50:35.620Z,16.83
2024-03-13T21:52:45.073Z,16.90
2024-03-13T21:54:53.773Z,16.87
2024-03-13T21:57:04.853Z,16.84
2024-03-13T21:59:13.624Z,16.76
2024-03-13T22:01:22.265Z,16.64
2024-03-13T22:03:30.970Z,16.63
2024-03-13T22:05:39.657Z,16.60
2024-03-13T22:07:48.256Z,16.60
2024-03-13T22:09:56.751Z,16.59
2024-03-13T22:12:05.532Z,16.57
2024-03-13T22:14:14.511Z,16.56
2024-03-13T22:16:24.390Z,16.60
2024-03-13T22:18:33.149Z,16.60
2024-03-13T22:20:42.481Z,16.64
2024-03-13T22:22:51.100Z,16.69
2024-03-13T22:24:59.766Z,16.78
2024-03-13T22:27:08.817Z,16.85
2024-03-13T22:29:17.717Z,16.90
2024-03-13T22:31:26.377Z,16.90
2024-03-13T22:33:35.700Z,16.89
2024-03-13T22:35:44.541Z,16.86
2024-03-13T22:37:53.106Z,16.80
2024-03-13T22:40:01.802Z,16.72
2024-03-13T22:42:11.184Z,16.60
2024-03-13T22:44:20.570Z,16.47
2024-03-13T22:46:30.186Z,16.39
2024-03-13T22:48:39.578Z,16.36
2024-03-13T22:50:48.378Z,16.42
2024-03-13T22:52:56.986Z,16.44
2024-03-13T22:55:06.189Z,16.36
2024-03-13T22:57:14.894Z,16.32
2024-03-13T22:59:23.927Z,16.31
2024-03-13T23:01:34.346Z,16.29
2024-03-13T23:03:43.122Z,16.23
2024-03-13T23:05:54.009Z,16.18
2024-03-13T23:08:02.723Z,16.14
2024-03-13T23:10:13.577Z,16.08
2024-03-13T23:12:22.925Z,16.01
2024-03-13T23:14:31.924Z,15.98
2024-03-13T23:16:40.944Z,15.97
2024-03-13T23:18:49.576Z,15.93
2024-03-13T23:21:00.489Z,15.86
2024-03-13T23:23:09.634Z,15.74
2024-03-13T23:25:18.454Z,15.63
2024-03-13T23:27:27.079Z,15.56
2024-03-13T23:29:35.795Z,15.49
2024-03-13T23:31:46.839Z,15.40
2024-03-13T23:33:57.376Z,15.29
2024-03-13T23:36:07.985Z,15.19
2024-03-13T23:38:16.739Z,15.14
2024-03-13T23:40:25.422Z,15.09
2024-03-13T23:42:34.122Z,15.01
2024-03-13T23:44:42.671Z,14.97
2024-03-13T23:46:52.012Z,14.97
2024-03-13T23:49:01.479Z,15.00
2024-03-13T23:51:16.721Z,15.02
2024-03-13T23:53:25.445Z,15.06
2024-03-13T23:55:34.222Z,15.06
2024-03-13T23:57:43.959Z,15.05
2024-03-13T23:59:53.024Z,15.04
